createdAt,value
2022-12-04T00:01:47.857Z,38.10
2022-12-04T00:04:18.240Z,38.00
2022-12-04T00:06:52.729Z,39.90
2022-12-04T00:09:25.791Z,33.50
2022-12-04T00:11:56.881Z,35.40
2022-12-04T00:14:27.532Z,34.20
2022-12-04T00:16:59.018Z,31.90
2022-12-04T00:19:29.394Z,31.50
2022-12-04T00:22:00.054Z,31.90
2022-12-04T00:24:31.060Z,30.40
2022-12-04T00:27:01.967Z,29.50
2022-12-04T00:29:32.328Z,31.30
2022-12-04T00:32:03.301Z,31.00
2022-12-04T00:34:33.907Z,28.20
2022-12-04T00:37:04.480Z,30.10
2022-12-04T00:39:35.780Z,29.20
2022-12-04T00:42:06.826Z,30.30
2022-12-04T00:44:37.246Z,31.90
2022-12-04T00:47:08.125Z,31.40
2022-12-04T00:49:38.823Z,29.90
2022-12-04T00:52:09.750Z,33.20
2022-12-04T00:54:41.743Z,31.90
2022-12-04T00:57:12.827Z,31.80
2022-12-04T00:59:43.493Z,31.50
2022-12-04T01:02:14.465Z,31.70
2022-12-04T01:04:44.978Z,32.10
2022-12-04T01:07:15.881Z,33.30
2022-12-04T01:09:46.312Z,31.60
2022-12-04T01:12:20.746Z,35.70
2022-12-04T01:14:51.564Z,33.20
2022-12-04T01:17:22.663Z,31.70
2022-12-04T01:19:53.745Z,33.00
2022-12-04T01:22:24.739Z,32.60
2022-12-04T01:24:57.715Z,31.70
2022-12-04T01:27:28.695Z,33.00
2022-12-04T01:29:59.270Z,35.80
2022-12-04T01:32:31.148Z,31.90
2022-12-04T01:35:01.630Z,33.80
2022-12-04T01:37:33.080Z,31.90
2022-12-04T01:40:03.612Z,31.30
2022-12-04T01:42:34.340Z,32.40
2022-12-04T01:45:22.383Z,32.50
2022-12-04T01:47:55.469Z,31.40
2022-12-04T01:50:26.369Z,32.10
2022-12-04T01:52:57.592Z,30.60
2022-12-04T01:55:28.082Z,30.10
2022-12-04T01:57:59.825Z,30.50
2022-12-04T02:00:31.307Z,30.10
2022-12-04T02:03:02.736Z,32.40
2022-12-04T02:05:33.274Z,30.70
2022-12-04T02:08:06.175Z,32.30
2022-12-04T02:10:48.347Z,30.70
2022-12-04T02:13:23.239Z,30.40
2022-12-04T02:15:55.351Z,32.70
2022-12-04T02:18:32.284Z,31.40
2022-12-04T02:21:07.385Z,32.50
2022-12-04T02:23:51.643Z,36.10
2022-12-04T02:26:29.814Z,33.10
2022-12-04T02:29:04.233Z,30.10
2022-12-04T02:31:36.607Z,30.40
2022-12-04T02:34:10.581Z,28.50
2022-12-04T02:36:44.418Z,28.60
2022-12-04T02:39:19.423Z,29.10
2022-12-04T02:41:52.545Z,28.60
2022-12-04T02:44:25.125Z,29.70
2022-12-04T02:46:57.333Z,29.20
2022-12-04T02:49:29.357Z,32.30
2022-12-04T02:52:00.908Z,27.40
2022-12-04T02:54:33.530Z,28.90
2022-12-04T02:57:05.974Z,27.60
2022-12-04T02:59:38.836Z,26.90
2022-12-04T03:02:11.890Z,30.50
2022-12-04T03:04:43.537Z,28.10
2022-12-04T03:07:15.996Z,30.80
2022-12-04T03:09:48.935Z,29.30
2022-12-04T03:12:20.601Z,29.50
2022-12-04T03:14:53.479Z,35.50
2022-12-04T03:17:26.974Z,32.70
2022-12-04T03:19:59.659Z,30.60
2022-12-04T03:22:30.999Z,31.50
2022-12-04T03:25:02.355Z,33.10
2022-12-04T03:27:35.604Z,31.70
2022-12-04T03:32:37.998Z,33.60
2022-12-04T03:35:12.587Z,33.60
2022-12-04T03:37:46.569Z,33.30
2022-12-04T03:40:21.286Z,34.20
2022-12-04T03:42:54.070Z,33.70
2022-12-04T03:45:26.639Z,31.50
2022-12-04T03:48:00.272Z,31.50
2022-12-04T03:50:35.007Z,27.30
2022-12-04T03:53:09.577Z,27.60
2022-12-04T03:55:43.298Z,27.00
2022-12-04T03:58:16.384Z,28.90
2022-12-04T04:00:48.694Z,28.40
2022-12-04T04:03:21.227Z,34.10
2022-12-04T04:05:54.842Z,31.30
2022-12-04T04:08:28.139Z,28.90
2022-12-04T04:11:01.096Z,28.60
2022-12-04T04:13:51.404Z,30.90
2022-12-04T04:16:41.285Z,32.40
2022-12-04T04:19:31.173Z,29.80
2022-12-04T04:22:21.818Z,26.60
2022-12-04T04:24:55.109Z,30.20
2022-12-04T04:29:55.043Z,29.80
2022-12-04T04:32:30.560Z,32.60
2022-12-04T04:35:04.961Z,32.20
2022-12-04T04:37:39.689Z,28.80
2022-12-04T04:40:15.127Z,29.70
2022-12-04T04:42:47.418Z,28.80
2022-12-04T04:45:20.001Z,28.70
2022-12-04T04:47:53.300Z,29.60
2022-12-04T04:52:55.755Z,28.80
2022-12-04T04:55:26.745Z,26.50
2022-12-04T04:58:07.008Z,27.10
2022-12-04T05:00:38.197Z,24.70
2022-12-04T05:03:08.961Z,24.00
2022-12-04T05:05:39.460Z,24.70
2022-12-04T05:08:10.337Z,23.20
2022-12-04T05:10:40.967Z,25.10
2022-12-04T05:13:12.894Z,23.40
2022-12-04T05:15:43.655Z,24.10
2022-12-04T05:18:14.354Z,22.80
2022-12-04T05:20:44.878Z,22.60
2022-12-04T05:23:15.516Z,23.80
2022-12-04T05:25:45.952Z,22.50
2022-12-04T05:28:16.705Z,23.40
2022-12-04T05:30:47.344Z,19.60
2022-12-04T05:33:18.238Z,21.80
2022-12-04T05:35:56.854Z,23.10
2022-12-04T05:38:28.145Z,25.60
2022-12-04T05:41:00.419Z,24.80
2022-12-04T05:43:31.293Z,26.30
2022-12-04T05:46:03.162Z,24.20
2022-12-04T05:48:35.129Z,22.70
2022-12-04T05:51:08.251Z,24.50
2022-12-04T05:53:39.522Z,22.60
2022-12-04T05:56:11.654Z,24.90
2022-12-04T05:58:42.260Z,26.40
2022-12-04T06:01:13.738Z,24.50
2022-12-04T06:03:44.439Z,25.90
2022-12-04T06:06:21.044Z,25.00
2022-12-04T06:08:53.559Z,23.80
2022-12-04T06:11:24.839Z,22.20
2022-12-04T06:13:56.841Z,24.00
2022-12-04T06:16:28.357Z,22.20
2022-12-04T06:19:00.827Z,25.00
2022-12-04T06:21:32.890Z,24.80
2022-12-04T06:24:03.631Z,26.40
2022-12-04T06:26:34.248Z,26.50
2022-12-04T06:29:05.089Z,25.50
2022-12-04T06:31:36.593Z,27.90
2022-12-04T06:34:08.627Z,30.00
2022-12-04T06:36:39.229Z,30.70
2022-12-04T06:39:14.160Z,28.00
2022-12-04T06:41:50.123Z,27.60
2022-12-04T06:44:20.755Z,28.90
2022-12-04T06:46:51.277Z,27.10
2022-12-04T06:49:23.343Z,26.30
2022-12-04T06:51:54.077Z,26.40
2022-12-04T06:54:24.505Z,24.10
2022-12-04T06:56:54.964Z,27.10
2022-12-04T06:59:25.603Z,23.20
2022-12-04T07:01:56.906Z,22.50
2022-12-04T07:04:28.154Z,22.20
2022-12-04T07:06:58.843Z,21.10
2022-12-04T07:09:29.313Z,24.30
2022-12-04T07:11:59.839Z,21.70
2022-12-04T07:14:31.037Z,19.40
2022-12-04T07:17:01.634Z,20.60
2022-12-04T07:19:32.293Z,19.90
2022-12-04T07:22:02.872Z,21.40
2022-12-04T07:24:33.712Z,22.40
2022-12-04T07:27:04.852Z,21.40
2022-12-04T07:29:35.692Z,20.20
2022-12-04T07:32:06.767Z,22.10
2022-12-04T07:34:37.566Z,22.50
2022-12-04T07:37:08.090Z,23.00
2022-12-04T07:39:38.535Z,23.60
2022-12-04T07:42:09.154Z,21.60
2022-12-04T07:44:39.695Z,23.60
2022-12-04T07:47:10.202Z,21.90
2022-12-04T07:49:40.978Z,21.30
2022-12-04T07:52:11.363Z,22.00
2022-12-04T07:54:42.244Z,19.30
2022-12-04T07:57:12.737Z,20.10
2022-12-04T07:59:43.467Z,20.30
2022-12-04T08:02:14.812Z,18.40
2022-12-04T08:04:45.560Z,20.00
2022-12-04T08:07:16.169Z,19.90
2022-12-04T08:09:47.418Z,21.90
2022-12-04T08:12:17.965Z,22.60
2022-12-04T08:14:50.560Z,23.60
2022-12-04T08:17:21.293Z,20.50
2022-12-04T08:19:52.236Z,22.30
2022-12-04T08:22:25.290Z,23.80
2022-12-04T08:24:56.256Z,22.80
2022-12-04T08:27:26.848Z,22.50
2022-12-04T08:29:57.763Z,22.00
2022-12-04T08:32:28.727Z,21.00
2022-12-04T08:34:59.480Z,23.10
2022-12-04T08:37:30.397Z,23.90
2022-12-04T08:40:01.087Z,26.70
2022-12-04T08:42:31.656Z,25.40
2022-12-04T08:45:02.406Z,23.70
2022-12-04T08:47:32.929Z,21.30
2022-12-04T08:50:03.772Z,21.70
2022-12-04T08:52:34.494Z,21.80
2022-12-04T08:55:05.292Z,21.10
2022-12-04T08:57:35.954Z,19.90
2022-12-04T09:00:07.408Z,20.80
2022-12-04T09:02:37.930Z,18.80
2022-12-04T09:05:08.975Z,19.90
2022-12-04T09:07:39.658Z,20.40
2022-12-04T09:10:11.365Z,19.70
2022-12-04T09:12:41.902Z,22.00
2022-12-04T09:15:13.032Z,21.30
2022-12-04T09:17:43.558Z,19.70
2022-12-04T09:20:15.321Z,19.80
2022-12-04T09:23:03.437Z,20.00
2022-12-04T09:25:36.666Z,19.00
2022-12-04T09:28:07.377Z,19.80
2022-12-04T09:30:38.332Z,18.70
2022-12-04T09:33:08.769Z,21.40
2022-12-04T09:35:41.014Z,19.70
2022-12-04T09:38:11.547Z,21.20
2022-12-04T09:40:47.001Z,24.20
2022-12-04T09:43:23.352Z,20.20
2022-12-04T09:45:56.682Z,19.50
2022-12-04T09:48:32.192Z,21.40
2022-12-04T09:51:03.246Z,21.80
2022-12-04T09:53:37.209Z,20.90
2022-12-04T09:56:09.523Z,20.40
2022-12-04T09:58:42.392Z,21.50
2022-12-04T10:01:18.556Z,21.10
2022-12-04T10:03:49.415Z,21.50
2022-12-04T10:06:24.341Z,21.60
2022-12-04T10:09:00.088Z,21.40
2022-12-04T10:11:38.017Z,25.90
2022-12-04T10:14:15.774Z,24.90
2022-12-04T10:16:52.958Z,23.70
2022-12-04T10:19:30.456Z,23.30
2022-12-04T10:22:05.531Z,23.80
2022-12-04T10:24:40.869Z,23.90
2022-12-04T10:27:13.554Z,22.10
2022-12-04T10:29:48.440Z,23.00
2022-12-04T10:32:21.834Z,20.80
2022-12-04T10:34:54.813Z,20.50
2022-12-04T10:37:25.957Z,20.80
2022-12-04T10:39:59.414Z,22.20
2022-12-04T10:42:32.651Z,21.40
2022-12-04T10:45:03.461Z,19.80
2022-12-04T10:47:34.506Z,17.60
2022-12-04T10:50:06.998Z,18.40
2022-12-04T10:52:37.855Z,19.50
2022-12-04T10:55:08.689Z,20.00
2022-12-04T10:57:40.433Z,19.90
2022-12-04T11:00:28.678Z,18.80
2022-12-04T11:03:01.175Z,18.10
2022-12-04T11:05:34.332Z,18.00
2022-12-04T11:08:06.272Z,18.60
2022-12-04T11:10:38.982Z,19.70
2022-12-04T11:13:16.816Z,22.20
2022-12-04T11:15:48.796Z,20.80
2022-12-04T11:18:20.707Z,18.80
2022-12-04T11:20:55.230Z,18.90
2022-12-04T11:23:26.752Z,18.60
2022-12-04T11:26:05.263Z,18.30
2022-12-04T11:28:42.668Z,18.80
2022-12-04T11:31:19.861Z,19.00
2022-12-04T11:33:53.556Z,17.30
2022-12-04T11:36:25.391Z,17.30
2022-12-04T11:39:05.373Z,17.10
2022-12-04T11:41:36.035Z,18.10
2022-12-04T11:44:08.891Z,17.00
2022-12-04T11:46:39.815Z,16.40
2022-12-04T11:49:21.823Z,16.20
2022-12-04T11:51:57.262Z,16.40
2022-12-04T11:54:30.715Z,16.00
2022-12-04T11:57:04.162Z,16.60
2022-12-04T11:59:41.955Z,18.30
2022-12-04T12:02:24.376Z,17.10
2022-12-04T12:05:04.316Z,15.80
2022-12-04T12:07:40.569Z,15.00
2022-12-04T12:10:13.938Z,14.00
2022-12-04T12:12:50.197Z,15.20
2022-12-04T12:15:24.941Z,12.80
2022-12-04T12:18:00.446Z,14.10
2022-12-04T12:20:32.907Z,13.70
2022-12-04T12:23:14.125Z,14.20
2022-12-04T12:25:52.168Z,15.20
2022-12-04T12:28:30.782Z,14.00
2022-12-04T12:31:07.769Z,13.50
2022-12-04T12:33:41.371Z,12.90
2022-12-04T12:36:12.608Z,14.90
2022-12-04T12:38:45.503Z,15.00
2022-12-04T12:41:17.860Z,15.40
2022-12-04T12:43:52.487Z,14.10
2022-12-04T12:46:26.272Z,13.70
2022-12-04T12:49:02.001Z,15.30
2022-12-04T12:51:34.886Z,15.30
2022-12-04T12:54:12.679Z,14.00
2022-12-04T12:56:49.748Z,15.20
2022-12-04T12:59:22.096Z,14.00
2022-12-04T13:02:00.209Z,15.00
2022-12-04T13:04:35.204Z,13.90
2022-12-04T13:07:12.402Z,14.10
2022-12-04T13:09:46.764Z,15.70
2022-12-04T13:12:19.597Z,14.50
2022-12-04T13:14:50.172Z,15.10
2022-12-04T13:17:22.606Z,16.40
2022-12-04T13:19:55.230Z,17.90
2022-12-04T13:22:29.377Z,17.00
2022-12-04T13:25:07.801Z,15.90
2022-12-04T13:27:43.807Z,16.00
2022-12-04T13:30:18.023Z,16.60
2022-12-04T13:35:20.689Z,17.20
2022-12-04T13:38:01.052Z,17.40
2022-12-04T13:40:33.780Z,18.10
2022-12-04T13:43:24.572Z,16.30
2022-12-04T13:45:57.097Z,17.30
2022-12-04T13:48:32.696Z,16.20
2022-12-04T13:51:08.275Z,15.40
2022-12-04T13:53:40.534Z,16.20
2022-12-04T13:56:26.851Z,15.90
2022-12-04T13:59:05.496Z,15.10
2022-12-04T14:01:39.907Z,15.00
2022-12-04T14:04:23.984Z,14.60
2022-12-04T14:06:56.311Z,15.90
2022-12-04T14:09:31.639Z,16.20
2022-12-04T14:12:04.127Z,14.50
2022-12-04T14:14:38.643Z,14.40
2022-12-04T14:17:18.255Z,14.00
2022-12-04T14:19:53.653Z,15.40
2022-12-04T14:22:28.864Z,17.50
2022-12-04T14:25:21.568Z,16.70
2022-12-04T14:27:53.396Z,17.80
2022-12-04T14:30:25.210Z,16.50
2022-12-04T14:32:57.600Z,16.70
2022-12-04T14:35:29.355Z,16.00
2022-12-04T14:38:01.879Z,15.80
2022-12-04T14:40:35.257Z,16.70
2022-12-04T14:45:38.058Z,17.70
2022-12-04T14:48:19.672Z,16.50
2022-12-04T14:50:55.174Z,16.30
2022-12-04T14:53:30.937Z,15.90
2022-12-04T14:56:07.802Z,17.10
2022-12-04T14:58:40.097Z,16.80
2022-12-04T15:01:25.292Z,16.20
2022-12-04T15:04:00.676Z,19.00
2022-12-04T15:06:33.353Z,19.30
2022-12-04T15:09:19.450Z,18.20
2022-12-04T15:12:09.641Z,17.20
2022-12-04T15:14:44.271Z,18.00
2022-12-04T15:17:16.625Z,18.50
2022-12-04T15:19:47.127Z,17.10
2022-12-04T15:22:22.405Z,17.00
2022-12-04T15:24:53.877Z,18.70
2022-12-04T15:27:31.925Z,19.10
2022-12-04T15:30:03.924Z,20.50
2022-12-04T15:32:35.159Z,18.80
2022-12-04T15:35:09.511Z,18.80
2022-12-04T15:37:42.004Z,19.80
2022-12-04T15:40:19.901Z,18.70
2022-12-04T15:43:16.842Z,17.70
2022-12-04T15:45:48.287Z,17.80
2022-12-04T15:48:25.422Z,19.00
2022-12-04T15:51:00.117Z,18.20
2022-12-04T15:53:31.693Z,17.60
2022-12-04T15:56:03.840Z,17.30
2022-12-04T15:58:35.767Z,17.50
2022-12-04T16:01:06.989Z,16.70
2022-12-04T16:03:39.954Z,16.50
2022-12-04T16:06:16.462Z,16.60
2022-12-04T16:08:48.309Z,18.20
2022-12-04T16:11:29.620Z,20.10
2022-12-04T16:14:14.779Z,18.70
2022-12-04T16:16:47.023Z,18.30
2022-12-04T16:19:18.914Z,17.40
2022-12-04T16:21:49.558Z,17.50
2022-12-04T16:24:20.683Z,19.20
2022-12-04T16:26:52.493Z,18.70
2022-12-04T16:29:25.340Z,16.50
2022-12-04T16:32:01.229Z,17.50
2022-12-04T16:34:33.662Z,18.30
2022-12-04T16:37:07.537Z,20.70
2022-12-04T16:39:41.342Z,20.20
2022-12-04T16:42:17.078Z,18.20
2022-12-04T16:45:04.630Z,18.90
2022-12-04T16:47:35.111Z,18.80
2022-12-04T16:50:06.370Z,20.00
2022-12-04T16:52:36.836Z,17.60
2022-12-04T16:55:11.820Z,20.10
2022-12-04T16:57:42.513Z,20.70
2022-12-04T17:00:15.038Z,17.60
2022-12-04T17:02:45.854Z,19.10
2022-12-04T17:05:20.689Z,19.40
2022-12-04T17:07:51.297Z,21.60
2022-12-04T17:10:24.339Z,20.30
2022-12-04T17:12:55.230Z,20.00
2022-12-04T17:15:25.982Z,21.90
2022-12-04T17:17:57.076Z,23.00
2022-12-04T17:20:28.256Z,21.30
2022-12-04T17:22:59.008Z,20.90
2022-12-04T17:25:29.889Z,19.60
2022-12-04T17:28:00.628Z,19.60
2022-12-04T17:30:36.005Z,23.40
2022-12-04T17:33:07.186Z,24.80
2022-12-04T17:35:37.819Z,21.70
2022-12-04T17:38:08.342Z,21.00
2022-12-04T17:40:39.102Z,21.60
2022-12-04T17:43:09.780Z,20.20
2022-12-04T17:45:42.368Z,20.20
2022-12-04T17:48:13.117Z,21.00
2022-12-04T17:50:43.959Z,20.30
2022-12-04T17:53:14.691Z,21.30
2022-12-04T17:55:45.420Z,22.50
2022-12-04T17:58:15.899Z,19.80
2022-12-04T18:00:46.511Z,19.50
2022-12-04T18:03:17.160Z,21.30
2022-12-04T18:05:48.310Z,21.50
2022-12-04T18:08:18.945Z,20.40
2022-12-04T18:10:50.079Z,21.90
2022-12-04T18:13:20.657Z,20.40
2022-12-04T18:15:51.953Z,20.70
2022-12-04T18:18:23.251Z,19.10
2022-12-04T18:21:02.324Z,21.40
2022-12-04T18:23:33.212Z,19.90
2022-12-04T18:26:05.429Z,20.30
2022-12-04T18:28:36.420Z,21.00
2022-12-04T18:31:08.092Z,21.50
2022-12-04T18:33:41.081Z,21.60
2022-12-04T18:36:14.151Z,22.20
2022-12-04T18:38:45.294Z,18.80
2022-12-04T18:41:16.996Z,19.70
2022-12-04T18:43:47.937Z,19.70
2022-12-04T18:46:20.334Z,19.50
2022-12-04T18:48:53.918Z,20.60
2022-12-04T18:53:56.920Z,22.40
2022-12-04T18:56:28.014Z,20.60
2022-12-04T18:58:59.276Z,17.60
2022-12-04T19:01:31.700Z,21.80
2022-12-04T19:04:18.403Z,22.50
2022-12-04T19:06:50.408Z,21.10
2022-12-04T19:09:35.481Z,19.20
2022-12-04T19:12:13.201Z,19.50
2022-12-04T19:14:43.877Z,19.90
2022-12-04T19:17:15.483Z,20.30
2022-12-04T19:19:46.300Z,21.20
2022-12-04T19:22:17.008Z,18.80
2022-12-04T19:24:48.274Z,19.60
2022-12-04T19:27:19.753Z,21.00
2022-12-04T19:29:50.640Z,20.60
2022-12-04T19:32:22.221Z,20.60
2022-12-04T19:34:53.248Z,20.40
2022-12-04T19:37:23.875Z,22.50
2022-12-04T19:39:55.176Z,20.80
2022-12-04T19:42:26.361Z,23.50
2022-12-04T19:44:57.105Z,20.70
2022-12-04T19:47:27.831Z,19.20
2022-12-04T19:49:59.180Z,22.90
2022-12-04T19:52:32.617Z,19.90
2022-12-04T19:55:03.817Z,20.90
2022-12-04T19:57:35.060Z,21.30
2022-12-04T20:00:07.723Z,21.20
2022-12-04T20:02:42.742Z,20.80
2022-12-04T20:05:13.557Z,20.70
2022-12-04T20:07:44.193Z,22.30
2022-12-04T20:10:15.220Z,20.20
2022-12-04T20:12:46.571Z,20.90
2022-12-04T20:15:17.253Z,21.10
2022-12-04T20:17:47.677Z,22.40
2022-12-04T20:20:18.525Z,23.50
2022-12-04T20:22:49.352Z,22.40
2022-12-04T20:25:20.312Z,21.70
2022-12-04T20:27:51.140Z,21.30
2022-12-04T20:30:22.450Z,19.60
2022-12-04T20:32:53.279Z,19.10
2022-12-04T20:35:24.018Z,21.50
2022-12-04T20:37:54.668Z,22.70
2022-12-04T20:40:25.612Z,21.90
2022-12-04T20:42:56.340Z,21.70
2022-12-04T20:45:27.039Z,20.50
2022-12-04T20:47:57.612Z,21.20
2022-12-04T20:50:28.358Z,21.30
2022-12-04T20:52:59.035Z,19.50
2022-12-04T20:55:29.938Z,21.00
2022-12-04T20:58:00.739Z,20.00
2022-12-04T21:00:32.050Z,19.90
2022-12-04T21:03:03.563Z,21.80
2022-12-04T21:05:35.087Z,22.10
2022-12-04T21:08:05.904Z,21.50
2022-12-04T21:10:36.468Z,22.70
2022-12-04T21:13:26.640Z,20.60
2022-12-04T21:16:02.562Z,19.10
2022-12-04T21:18:33.227Z,22.20
2022-12-04T21:21:04.264Z,21.00
2022-12-04T21:23:36.318Z,19.70
2022-12-04T21:26:07.272Z,21.30
2022-12-04T21:28:38.026Z,20.90
2022-12-04T21:31:09.070Z,20.40
2022-12-04T21:33:40.081Z,22.80
2022-12-04T21:36:11.433Z,21.60
2022-12-04T21:38:42.170Z,23.80
2022-12-04T21:41:34.840Z,23.60
2022-12-04T21:44:07.001Z,20.30
2022-12-04T21:46:38.721Z,21.60
2022-12-04T21:49:09.619Z,22.70
2022-12-04T21:51:56.727Z,22.20
2022-12-04T21:54:28.453Z,22.90
2022-12-04T21:56:59.488Z,23.60
2022-12-04T21:59:30.323Z,22.90
2022-12-04T22:02:01.182Z,21.90
2022-12-04T22:04:31.917Z,21.60
2022-12-04T22:07:03.034Z,21.50
2022-12-04T22:09:33.901Z,20.90
2022-12-04T22:12:26.366Z,23.20
2022-12-04T22:14:55.675Z,22.30
2022-12-04T22:17:29.730Z,24.10
2022-12-04T22:20:00.385Z,22.80
2022-12-04T22:22:31.266Z,20.20
2022-12-04T22:25:02.638Z,22.60
2022-12-04T22:27:33.460Z,19.60
2022-12-04T22:30:04.985Z,21.00
2022-12-04T22:32:36.276Z,20.50
2022-12-04T22:35:07.328Z,24.40
2022-12-04T22:37:42.748Z,19.50
2022-12-04T22:40:15.867Z,19.30
2022-12-04T22:42:46.739Z,20.90
2022-12-04T22:45:17.679Z,19.40
2022-12-04T22:47:48.450Z,21.30
2022-12-04T22:50:19.449Z,21.00
2022-12-04T22:52:50.272Z,18.90
2022-12-04T22:55:21.270Z,20.50
2022-12-04T22:57:51.940Z,20.10
2022-12-04T23:00:22.838Z,19.50
2022-12-04T23:02:53.544Z,20.90
2022-12-04T23:05:24.151Z,20.80
2022-12-04T23:07:55.519Z,20.50
2022-12-04T23:10:26.489Z,18.90
2022-12-04T23:12:57.223Z,19.40
2022-12-04T23:15:30.771Z,21.30
2022-12-04T23:18:01.424Z,19.80
2022-12-04T23:20:32.027Z,19.10
2022-12-04T23:23:03.537Z,21.80
2022-12-04T23:25:39.433Z,21.50
2022-12-04T23:28:10.226Z,20.60
2022-12-04T23:30:45.453Z,21.60
2022-12-04T23:33:16.295Z,21.80
2022-12-04T23:35:47.136Z,20.90
2022-12-04T23:38:18.221Z,21.80
2022-12-04T23:40:49.211Z,22.80
2022-12-04T23:43:20.672Z,23.40
2022-12-04T23:45:51.293Z,23.20
2022-12-04T23:48:22.137Z,24.40
2022-12-04T23:50:53.226Z,24.10
2022-12-04T23:53:24.433Z,25.80
2022-12-04T23:55:58.639Z,26.30
2022-12-04T23:58:29.573Z,23.70
